This is the latest recevied weather packets stored in our database for station/object KE6JJJ-1. If no packets are shown the sender has not sent any weather packets the latest 1 day(s).
| Time | Temp. | Humidity | Pressure | Rain* | Wind** | Luminosity | Snow |
|---|---|---|---|---|---|---|---|
| 1778052903 | 13.89° C | 82% | 1018.5 hPa | 0 mm | 0.89 m/s, 270° | 0 W/m² | - |
| 1778051104 | 13.89° C | 82% | 1018.4 hPa | 0 mm | 0.89 m/s, 292° | 0 W/m² | - |
| 1778049303 | 13.89° C | 81% | 1018.1 hPa | 0 mm | 1.34 m/s, 248° | 0 W/m² | - |
| 1778047574 | 14.44° C | 81% | 1018.1 hPa | 0 mm | 1.34 m/s, 292° | 0 W/m² | - |
| 1778047503 | 14.44° C | 81% | 1018.1 hPa | 0 mm | 1.34 m/s, 292° | 0 W/m² | - |
| 1778045703 | 14.44° C | 81% | 1018 hPa | 0 mm | 0.89 m/s, 270° | 0 W/m² | - |
| 1778043903 | 14.44° C | 81% | 1017.8 hPa | 0 mm | 2.24 m/s, 248° | 0 W/m² | - |
| 1778042111 | 14.44° C | 82% | 1017.6 hPa | 0 mm | 0.89 m/s, 270° | 0 W/m² | - |
| 1778040309 | 14.44° C | 80% | 1017 hPa | 0 mm | 2.24 m/s, 270° | 0 W/m² | - |
| 1778038503 | 14.44° C | 79% | 1016.5 hPa | 0 mm | 1.34 m/s, 248° | 0 W/m² | - |
| 1778036703 | 15° C | 77% | 1016.4 hPa | 0 mm | 2.24 m/s, 225° | 3 W/m² | - |
| 1778034903 | 15.56° C | 76% | 1016.2 hPa | 0 mm | 3.58 m/s, 225° | 23 W/m² | - |
| 1778033103 | 16.11° C | 73% | 1015.8 hPa | 0 mm | 1.79 m/s, 270° | 53 W/m² | - |
| 1778031304 | 16.67° C | 71% | 1015.9 hPa | 0 mm | 1.79 m/s, 270° | 220 W/m² | - |
| 1778029503 | 17.78° C | 69% | 1015.8 hPa | 0 mm | 2.68 m/s, 270° | 352 W/m² | - |
| 1778027703 | 17.78° C | 69% | 1015.7 hPa | 0 mm | 3.58 m/s, 270° | 359 W/m² | - |
| 1778025903 | 17.22° C | 71% | 1015.6 hPa | 0 mm | 4.47 m/s, 248° | 364 W/m² | - |
| 1778024103 | 17.78° C | 69% | 1015.7 hPa | 0 mm | 2.68 m/s, 292° | 314 W/m² | - |
| 1778022303 | 18.89° C | 66% | 1015.5 hPa | 0 mm | 3.13 m/s, 270° | 599 W/m² | - |
| 1778020503 | 17.78° C | 69% | 1015.4 hPa | 0 mm | 3.13 m/s, 292° | 805 W/m² | - |
| 1778018703 | 17.22° C | 70% | 1015.6 hPa | 0 mm | 4.02 m/s, 292° | 387 W/m² | - |
| 1778016903 | 17.78° C | 69% | 1015.8 hPa | 0 mm | 4.02 m/s, 225° | 397 W/m² | - |
| 1778015103 | 17.78° C | 69% | 1015.9 hPa | 0 mm | 2.68 m/s, 225° | 443 W/m² | - |
| 1778013313 | 17.78° C | 68% | 1015.8 hPa | 0 mm | 3.13 m/s, 270° | 352 W/m² | - |
| 1778011503 | 18.33° C | 69% | 1015.9 hPa | 0 mm | 3.58 m/s, 270° | 1148 W/m² | - |
* Rain latest hour (hover to see other rain measurements)
** Current wind speed in m/s (hover to see current wind gust speed)